Time;durP1;ratioP1;P1;durP2;ratioP2;P2;SDS_P1;SDS_P2;PMS_P1;PMS_P2;Temp;Humidity;BMP_temperature;BMP_pressure;BME280_temperature;BME280_humidity;BME280_pressure;Samples;Min_cycle;Max_cycle;Signal;HPM_P1;HPM_P2
2021/07/05 00:00:47;;;;;;;3.47;2.60;;;15.20;99.90;;;;;;5091087;28;20194;-77
2021/07/05 00:03:14;;;;;;;3.13;2.33;;;15.20;99.90;;;;;;5091495;28;20202;-77
2021/07/05 00:05:42;;;;;;;4.50;2.70;;;15.20;99.90;;;;;;5096844;28;20642;-76
2021/07/05 00:08:09;;;;;;;4.83;2.67;;;15.20;99.90;;;;;;5111611;28;20740;-77
2021/07/05 00:10:36;;;;;;;3.53;2.60;;;15.20;99.90;;;;;;5098832;28;20282;-77
2021/07/05 00:13:03;;;;;;;4.27;2.60;;;15.20;99.90;;;;;;5091674;28;20286;-77
2021/07/05 00:15:32;;;;;;;6.23;2.70;;;15.20;99.90;;;;;;5091345;28;20293;-77
2021/07/05 00:18:01;;;;;;;4.30;2.50;;;15.20;99.90;;;;;;5091839;28;20237;-77
2021/07/05 00:20:29;;;;;;;3.70;2.50;;;15.20;99.90;;;;;;5091631;28;20234;-76
2021/07/05 00:22:58;;;;;;;2.63;2.43;;;15.20;99.90;;;;;;5104709;28;20201;-76
2021/07/05 00:25:25;;;;;;;3.40;2.53;;;15.20;99.90;;;;;;5111469;28;20624;-77
2021/07/05 00:27:52;;;;;;;4.97;2.80;;;15.20;99.90;;;;;;5111659;28;20197;-77
2021/07/05 00:30:21;;;;;;;4.20;2.60;;;15.20;99.90;;;;;;5111949;28;20393;-77
2021/07/05 00:32:49;;;;;;;3.97;2.50;;;15.20;99.90;;;;;;5103987;28;20216;-77
2021/07/05 00:35:18;;;;;;;4.40;2.73;;;15.20;99.90;;;;;;5091511;28;20230;-77
2021/07/05 00:37:45;;;;;;;4.03;2.70;;;15.20;99.90;;;;;;5092803;28;20234;-77
2021/07/05 00:40:16;;;;;;;11.20;3.00;;;15.30;99.90;;;;;;5111048;28;20700;-77
2021/07/05 00:42:43;;;;;;;3.73;2.50;;;15.30;99.90;;;;;;5111665;28;20968;-77
2021/07/05 00:45:11;;;;;;;2.67;2.30;;;15.30;99.90;;;;;;5111595;28;20238;-77
2021/07/05 00:47:38;;;;;;;3.87;2.50;;;15.30;99.90;;;;;;5112518;28;20642;-77
2021/07/05 00:50:08;;;;;;;3.07;2.13;;;15.30;99.90;;;;;;5115903;28;20228;-77
2021/07/05 00:52:35;;;;;;;3.43;2.37;;;15.30;99.90;;;;;;5115154;28;20237;-77
2021/07/05 00:55:03;;;;;;;2.50;2.30;;;15.20;99.90;;;;;;5114672;27;20284;-76
2021/07/05 00:57:31;;;;;;;3.03;2.40;;;15.30;99.90;;;;;;5115120;28;20269;-77
2021/07/05 00:59:59;;;;;;;4.53;2.10;;;15.30;99.90;;;;;;5115169;28;20684;-77
2021/07/05 01:02:28;;;;;;;2.97;1.93;;;15.30;99.90;;;;;;5113887;28;20237;-77
2021/07/05 01:04:56;;;;;;;3.63;1.80;;;15.30;99.90;;;;;;5115083;28;20654;-77
2021/07/05 01:07:24;;;;;;;2.40;1.70;;;15.30;99.90;;;;;;5106459;28;20692;-77
2021/07/05 01:09:52;;;;;;;2.37;1.80;;;15.30;99.90;;;;;;5094302;28;20225;-77
2021/07/05 01:12:19;;;;;;;2.80;1.50;;;15.30;99.90;;;;;;5109174;28;20633;-77
2021/07/05 01:14:47;;;;;;;1.80;1.70;;;15.30;99.90;;;;;;5107220;28;20233;-76
2021/07/05 01:17:14;;;;;;;2.37;1.63;;;15.30;99.90;;;;;;5094447;28;20229;-77
2021/07/05 01:19:44;;;;;;;2.20;1.80;;;15.40;99.90;;;;;;5094206;28;20252;-77
2021/07/05 01:22:13;;;;;;;2.00;1.80;;;15.40;99.90;;;;;;5094061;28;20304;-77
2021/07/05 01:24:40;;;;;;;2.67;1.90;;;15.30;99.90;;;;;;5104596;28;20201;-77
2021/07/05 01:27:07;;;;;;;2.33;1.90;;;15.40;99.90;;;;;;5114081;28;20198;-77
2021/07/05 01:29:34;;;;;;;3.73;1.80;;;15.40;99.90;;;;;;5114496;28;20290;-77
2021/07/05 01:32:02;;;;;;;2.20;1.90;;;15.40;99.90;;;;;;5113705;28;20225;-77
2021/07/05 01:34:29;;;;;;;3.27;1.70;;;15.50;99.90;;;;;;5093674;28;20654;-77
2021/07/05 01:36:56;;;;;;;5.00;2.10;;;15.40;99.90;;;;;;5102529;28;20276;-78
2021/07/05 01:39:25;;;;;;;4.87;2.10;;;15.50;99.90;;;;;;5114462;28;20308;-78
2021/07/05 01:41:52;;;;;;;4.73;2.27;;;15.40;99.90;;;;;;5104275;28;20210;-78
2021/07/05 01:44:19;;;;;;;3.97;2.10;;;15.40;99.90;;;;;;5114861;28;20238;-77
2021/07/05 01:46:46;;;;;;;3.10;2.03;;;15.40;99.90;;;;;;5102315;28;20229;-78
2021/07/05 01:49:13;;;;;;;2.30;1.77;;;15.40;99.90;;;;;;5094291;28;20236;-77
2021/07/05 01:51:40;;;;;;;4.70;1.70;;;15.40;99.90;;;;;;5093467;28;20733;-78
2021/07/05 01:54:07;;;;;;;2.47;1.40;;;15.40;99.90;;;;;;5093368;28;20281;-77
2021/07/05 01:56:36;;;;;;;2.37;1.20;;;15.40;99.90;;;;;;5095612;28;20234;-77
2021/07/05 01:59:03;;;;;;;3.53;1.30;;;15.30;99.90;;;;;;5113034;28;20323;-77
2021/07/05 02:01:30;;;;;;;1.57;1.00;;;15.30;99.90;;;;;;5114449;28;20255;-77
2021/07/05 02:03:57;;;;;;;1.70;1.20;;;15.30;99.90;;;;;;5113958;28;20231;-77
2021/07/05 02:06:24;;;;;;;2.90;1.00;;;15.30;99.90;;;;;;5114081;28;20240;-77
2021/07/05 02:08:53;;;;;;;1.27;1.07;;;15.30;99.90;;;;;;5113248;28;20249;-77
2021/07/05 02:11:20;;;;;;;2.87;1.30;;;15.30;99.90;;;;;;5113244;28;20209;-77
2021/07/05 02:13:48;;;;;;;1.50;0.93;;;15.30;99.90;;;;;;5094479;28;20681;-77
2021/07/05 02:16:15;;;;;;;4.40;1.00;;;15.20;99.90;;;;;;5093291;28;20238;-77
2021/07/05 02:18:42;;;;;;;1.57;0.80;;;15.10;99.90;;;;;;5098482;28;20252;-77
2021/07/05 02:21:09;;;;;;;1.83;0.90;;;15.00;99.90;;;;;;5113325;28;20253;-77
2021/07/05 02:23:38;;;;;;;1.47;0.90;;;15.00;99.90;;;;;;5113282;28;20236;-77
2021/07/05 02:26:05;;;;;;;1.73;1.03;;;15.00;99.90;;;;;;5113527;28;20206;-77
2021/07/05 02:28:36;;;;;;;1.40;1.00;;;14.90;99.90;;;;;;5093403;27;20205;-77
2021/07/05 02:31:06;;;;;;;2.10;0.70;;;14.80;99.90;;;;;;5092883;28;20202;-77
2021/07/05 02:33:34;;;;;;;2.27;0.77;;;14.80;99.90;;;;;;5092698;28;20642;-77
2021/07/05 02:36:02;;;;;;;2.60;0.80;;;14.70;99.90;;;;;;5092086;28;20206;-77
2021/07/05 02:38:31;;;;;;;1.97;1.00;;;14.70;99.90;;;;;;5096400;28;20689;-77
2021/07/05 02:40:58;;;;;;;1.40;0.97;;;14.70;99.90;;;;;;5093043;28;20194;-77
2021/07/05 02:43:26;;;;;;;1.73;0.90;;;14.60;99.90;;;;;;5092708;28;20285;-77
2021/07/05 02:45:57;;;;;;;2.40;1.10;;;14.60;99.90;;;;;;5096858;28;20230;-77
2021/07/05 02:48:27;;;;;;;1.30;0.80;;;14.60;99.90;;;;;;5104590;28;20194;-77
2021/07/05 02:50:56;;;;;;;2.90;0.97;;;14.60;99.90;;;;;;5106821;28;20278;-77
2021/07/05 02:53:23;;;;;;;1.53;0.90;;;14.50;99.90;;;;;;5112858;27;20712;-77
2021/07/05 02:55:50;;;;;;;1.57;0.90;;;14.50;99.90;;;;;;5113137;28;20204;-77
2021/07/05 02:58:18;;;;;;;1.47;1.10;;;14.50;99.90;;;;;;5112646;28;20768;-77
2021/07/05 03:00:48;;;;;;;1.97;0.90;;;14.50;99.90;;;;;;5106589;28;20250;-77
2021/07/05 03:03:16;;;;;;;3.50;1.00;;;14.50;99.90;;;;;;5092014;28;20241;-77
2021/07/05 03:05:44;;;;;;;1.53;1.00;;;14.60;99.90;;;;;;5098677;28;20229;-77
2021/07/05 03:08:12;;;;;;;2.77;1.00;;;14.50;99.90;;;;;;5112395;28;20284;-77
2021/07/05 03:10:40;;;;;;;2.33;1.00;;;14.60;99.90;;;;;;5113109;28;20225;-77
2021/07/05 03:13:09;;;;;;;2.47;1.20;;;14.50;99.90;;;;;;5112704;28;20233;-77
2021/07/05 03:15:37;;;;;;;1.17;1.00;;;14.50;99.90;;;;;;5112765;28;20285;-77
2021/07/05 03:18:06;;;;;;;3.20;1.10;;;14.50;99.90;;;;;;5112568;28;20233;-78
2021/07/05 03:20:35;;;;;;;1.93;1.30;;;14.60;99.90;;;;;;5112026;28;20225;-77
2021/07/05 03:23:05;;;;;;;2.23;1.30;;;14.60;99.90;;;;;;5096624;28;20241;-78
2021/07/05 03:25:33;;;;;;;2.03;1.30;;;14.60;99.90;;;;;;5092039;28;20669;-77
2021/07/05 03:28:01;;;;;;;1.40;1.20;;;14.60;99.90;;;;;;5092274;28;20234;-77
2021/07/05 03:30:31;;;;;;;4.63;1.20;;;14.60;99.90;;;;;;5092022;28;20285;-77
2021/07/05 03:32:58;;;;;;;2.27;1.30;;;14.60;99.90;;;;;;5092292;28;20252;-77
2021/07/05 03:35:26;;;;;;;5.23;1.60;;;14.70;99.90;;;;;;5091562;28;20289;-77
2021/07/05 03:37:54;;;;;;;6.17;1.57;;;14.70;99.90;;;;;;5092232;28;20293;-77
2021/07/05 03:40:25;;;;;;;2.33;1.47;;;14.70;99.90;;;;;;5092113;28;20261;-77
2021/07/05 03:42:53;;;;;;;1.90;1.40;;;14.70;99.90;;;;;;5091989;28;20251;-77
2021/07/05 03:45:21;;;;;;;2.50;1.77;;;14.70;99.90;;;;;;5108666;28;20288;-77
2021/07/05 03:47:48;;;;;;;3.67;1.80;;;14.70;99.90;;;;;;5111964;28;20270;-77
2021/07/05 03:50:17;;;;;;;2.00;1.80;;;14.70;99.90;;;;;;5111932;28;20231;-77
2021/07/05 03:52:45;;;;;;;5.70;1.90;;;14.70;99.90;;;;;;5112112;28;20233;-77
2021/07/05 03:55:13;;;;;;;3.27;1.83;;;14.70;99.90;;;;;;5091346;28;20240;-77
2021/07/05 03:57:42;;;;;;;2.47;2.10;;;14.70;99.90;;;;;;5108647;28;20309;-77
2021/07/05 04:00:12;;;;;;;3.03;2.10;;;14.70;99.90;;;;;;5101660;28;20569;-77
2021/07/05 04:02:39;;;;;;;2.90;2.37;;;14.70;99.90;;;;;;5110646;28;20190;-77
2021/07/05 04:05:07;;;;;;;4.00;2.53;;;14.70;99.90;;;;;;5111678;28;20653;-77
2021/07/05 04:07:35;;;;;;;3.30;2.50;;;14.70;99.90;;;;;;5112357;28;20331;-78
2021/07/05 04:10:02;;;;;;;3.60;2.70;;;14.80;99.90;;;;;;5098566;28;20197;-77
2021/07/05 04:12:29;;;;;;;6.40;3.00;;;14.80;99.90;;;;;;5111155;28;20233;-77
2021/07/05 04:14:57;;;;;;;4.10;2.70;;;14.80;99.90;;;;;;5112002;28;20237;-78
2021/07/05 04:17:24;;;;;;;4.80;2.90;;;14.80;99.90;;;;;;5111704;28;20201;-78
2021/07/05 04:19:51;;;;;;;4.93;2.80;;;14.80;99.90;;;;;;5111976;28;20279;-77
2021/07/05 04:22:19;;;;;;;3.00;2.60;;;14.80;99.90;;;;;;5112330;28;20249;-77
2021/07/05 04:24:47;;;;;;;5.17;2.83;;;14.80;99.90;;;;;;5108872;28;20194;-77
2021/07/05 04:27:15;;;;;;;4.93;3.07;;;14.70;99.90;;;;;;5095297;28;20289;-77
2021/07/05 04:29:43;;;;;;;5.77;3.00;;;14.70;99.90;;;;;;5098219;28;20245;-77
2021/07/05 04:32:11;;;;;;;3.13;2.60;;;14.70;99.90;;;;;;5115728;28;20241;-77
2021/07/05 04:34:38;;;;;;;4.67;2.90;;;14.60;99.90;;;;;;5115367;28;20233;-77
2021/07/05 04:37:05;;;;;;;2.77;2.50;;;14.40;99.90;;;;;;5115647;28;20237;-77
2021/07/05 04:39:32;;;;;;;6.60;2.90;;;14.30;99.90;;;;;;5113993;28;20309;-78
2021/07/05 04:41:59;;;;;;;5.67;2.80;;;14.20;99.90;;;;;;5115818;28;20225;-77
2021/07/05 04:44:26;;;;;;;4.50;2.60;;;14.20;99.90;;;;;;5109160;28;20203;-78
2021/07/05 04:46:53;;;;;;;5.00;2.70;;;14.20;99.90;;;;;;5115011;28;20285;-77
2021/07/05 04:49:22;;;;;;;6.13;2.77;;;14.10;99.90;;;;;;5115561;28;20237;-77
2021/07/05 04:51:49;;;;;;;4.00;2.80;;;14.10;99.90;;;;;;5114724;28;20197;-77
2021/07/05 04:54:16;;;;;;;3.97;2.90;;;14.10;99.90;;;;;;5115000;28;20233;-77
2021/07/05 04:56:43;;;;;;;5.50;3.00;;;14.20;99.90;;;;;;5115179;28;20197;-77
2021/07/05 04:59:14;;;;;;;6.23;3.10;;;14.30;99.90;;;;;;5114904;27;20337;-77
2021/07/05 05:01:41;;;;;;;5.17;3.50;;;14.60;99.90;;;;;;5114473;28;20193;-77
2021/07/05 05:04:08;;;;;;;5.17;3.10;;;14.80;99.90;;;;;;5101069;28;20228;-77
2021/07/05 05:06:36;;;;;;;5.27;2.90;;;15.00;99.90;;;;;;5114938;28;20237;-77
2021/07/05 05:09:04;;;;;;;3.77;2.77;;;15.00;99.90;;;;;;5113674;28;20233;-78
2021/07/05 05:11:31;;;;;;;4.43;2.80;;;15.10;99.90;;;;;;5114831;28;20225;-78
2021/07/05 05:13:58;;;;;;;5.13;2.63;;;14.90;99.90;;;;;;5103162;28;20247;-77
2021/07/05 05:16:25;;;;;;;4.33;2.47;;;14.80;99.90;;;;;;5114695;28;20270;-77
2021/07/05 05:18:52;;;;;;;3.80;2.67;;;14.80;99.90;;;;;;5109132;28;20645;-78
2021/07/05 05:21:19;;;;;;;3.13;2.20;;;14.80;99.90;;;;;;5115084;28;20253;-77
2021/07/05 05:23:47;;;;;;;6.17;2.10;;;14.70;99.90;;;;;;5114808;28;20202;-78
2021/07/05 05:26:14;;;;;;;4.20;1.93;;;14.70;99.90;;;;;;5114923;28;20288;-78
2021/07/05 05:28:41;;;;;;;3.23;2.00;;;15.00;99.90;;;;;;5114992;28;20288;-79
2021/07/05 05:31:08;;;;;;;2.57;2.10;;;15.10;99.90;;;;;;5110438;28;20220;-78
2021/07/05 05:33:35;;;;;;;3.53;1.70;;;15.10;99.90;;;;;;5093783;28;20293;-79
2021/07/05 05:36:02;;;;;;;3.40;1.70;;;15.10;99.90;;;;;;5101901;28;20230;-79
2021/07/05 05:38:29;;;;;;;2.53;1.70;;;14.90;99.90;;;;;;5096166;28;20237;-79
2021/07/05 05:40:57;;;;;;;2.20;1.87;;;14.90;99.90;;;;;;5113524;28;20214;-79
2021/07/05 05:43:24;;;;;;;3.33;2.03;;;15.00;99.90;;;;;;5099813;28;20234;-78
2021/07/05 05:45:51;;;;;;;1.90;1.70;;;15.10;99.90;;;;;;5093570;28;20252;-78
2021/07/05 05:48:18;;;;;;;4.90;1.87;;;15.20;99.90;;;;;;5093616;28;20678;-79
2021/07/05 05:50:45;;;;;;;5.87;1.73;;;15.30;99.90;;;;;;5111223;28;20737;-78
2021/07/05 05:53:11;;;;;;;1.93;1.60;;;15.30;99.90;;;;;;5112720;28;20229;-78
2021/07/05 05:55:44;;;;;;;3.30;1.80;;;15.40;99.90;;;;;;5112507;28;20221;-79
2021/07/05 05:58:13;;;;;;;3.63;1.77;;;15.40;99.90;;;;;;5109912;28;20236;-78
2021/07/05 06:00:40;;;;;;;5.33;1.50;;;15.40;99.90;;;;;;5104430;28;20312;-78
2021/07/05 06:03:07;;;;;;;3.37;1.70;;;15.30;99.90;;;;;;5110137;28;20247;-78
2021/07/05 06:05:34;;;;;;;2.13;1.80;;;15.20;99.90;;;;;;5098348;28;20234;-78
2021/07/05 06:08:01;;;;;;;2.90;1.70;;;15.20;99.90;;;;;;5111613;28;20229;-78
2021/07/05 06:10:28;;;;;;;3.20;1.80;;;15.40;99.90;;;;;;5107308;28;20256;-78
2021/07/05 06:12:56;;;;;;;2.17;1.50;;;15.50;99.90;;;;;;5109253;28;20229;-78
2021/07/05 06:15:25;;;;;;;2.13;1.60;;;15.50;99.90;;;;;;5112423;28;20305;-79
2021/07/05 06:17:52;;;;;;;3.77;1.80;;;15.50;99.90;;;;;;5101934;28;20197;-78
2021/07/05 06:20:20;;;;;;;2.67;1.60;;;15.60;99.90;;;;;;5112770;28;20689;-78
2021/07/05 06:22:49;;;;;;;2.50;1.47;;;15.80;99.90;;;;;;5112328;28;20298;-78
2021/07/05 06:25:17;;;;;;;2.93;1.70;;;16.00;99.90;;;;;;5104487;28;20194;-78
2021/07/05 06:27:45;;;;;;;3.30;1.43;;;16.00;99.90;;;;;;5108855;28;20233;-78
2021/07/05 06:30:12;;;;;;;2.00;1.20;;;16.10;99.90;;;;;;5104227;28;20230;-78
2021/07/05 06:32:41;;;;;;;2.17;1.10;;;16.00;99.90;;;;;;5112478;28;20620;-78
2021/07/05 06:35:09;;;;;;;3.07;1.30;;;16.10;99.90;;;;;;5112585;28;20202;-79
2021/07/05 06:37:36;;;;;;;2.83;1.27;;;16.00;99.90;;;;;;5099328;28;20277;-79
2021/07/05 06:40:04;;;;;;;1.93;1.50;;;16.00;99.90;;;;;;5093094;28;20255;-80
2021/07/05 06:42:31;;;;;;;2.90;1.43;;;16.00;99.90;;;;;;5111033;28;20288;-80
2021/07/05 06:44:58;;;;;;;5.87;1.50;;;15.90;99.90;;;;;;5098457;28;20198;-81
2021/07/05 06:47:25;;;;;;;2.67;1.33;;;16.10;99.90;;;;;;5105909;28;20292;-80
2021/07/05 06:49:53;;;;;;;2.10;1.40;;;16.20;99.90;;;;;;5107189;28;20635;-80
2021/07/05 06:52:20;;;;;;;1.50;1.40;;;16.60;99.90;;;;;;5103746;28;20233;-80
2021/07/05 06:54:47;;;;;;;2.70;1.17;;;16.60;99.90;;;;;;5104388;28;20330;-80
2021/07/05 06:59:55;;;;;;;2.63;1.60;;;16.40;99.90;;;;;;5099878;28;20664;-81
2021/07/05 07:02:22;;;;;;;1.40;1.10;;;16.60;99.90;;;;;;5097658;27;20230;-80
2021/07/05 07:04:49;;;;;;;2.33;1.20;;;17.00;99.90;;;;;;5099477;28;20228;-80
2021/07/05 07:07:18;;;;;;;2.90;1.30;;;17.20;99.90;;;;;;5094246;28;20202;-80
2021/07/05 07:09:44;;;;;;;1.43;1.27;;;17.50;99.90;;;;;;5108360;28;20240;-80
2021/07/05 07:12:11;;;;;;;2.10;1.50;;;17.60;99.90;;;;;;5097235;28;20608;-80
2021/07/05 07:14:38;;;;;;;2.08;1.20;;;18.00;99.90;;;;;;5116062;27;20193;-80
2021/07/05 07:17:08;;;;;;;2.95;1.20;;;19.50;99.90;;;;;;5110769;27;20234;-80
2021/07/05 07:19:35;;;;;;;1.45;1.00;;;19.80;99.90;;;;;;5091749;28;20209;-80
2021/07/05 07:22:04;;;;;;;1.23;0.85;;;19.90;99.90;;;;;;5106933;28;20779;-79
2021/07/05 07:24:33;;;;;;;2.13;1.00;;;20.80;99.90;;;;;;5098261;28;20194;-80
2021/07/05 07:27:01;;;;;;;1.95;1.13;;;22.00;99.90;;;;;;5101303;28;20851;-80
2021/07/05 07:29:28;;;;;;;3.85;1.35;;;20.50;99.90;;;;;;5106121;28;20232;-80
2021/07/05 07:31:55;;;;;;;4.47;1.50;;;19.40;99.90;;;;;;5104730;28;20225;-81
2021/07/05 07:34:22;;;;;;;4.53;1.75;;;18.60;99.90;;;;;;5108687;28;20285;-80
2021/07/05 07:36:49;;;;;;;4.38;1.85;;;18.20;99.90;;;;;;5109980;28;20229;-80
2021/07/05 07:39:17;;;;;;;6.10;2.30;;;18.40;99.90;;;;;;5091581;28;20668;-80
2021/07/05 07:41:46;;;;;;;2.38;1.77;;;18.40;99.90;;;;;;5091673;28;20226;-79
2021/07/05 07:44:13;;;;;;;2.83;2.30;;;18.80;99.90;;;;;;5091684;28;20613;-80
2021/07/05 07:46:40;;;;;;;3.80;2.40;;;19.40;99.90;;;;;;5101676;28;20198;-80
2021/07/05 07:49:07;;;;;;;4.05;2.90;;;20.20;99.90;;;;;;5103797;28;20252;-80
2021/07/05 07:51:34;;;;;;;2.88;2.67;;;21.00;99.90;;;;;;5100033;28;20221;-80
2021/07/05 07:54:01;;;;;;;5.45;2.30;;;21.00;99.90;;;;;;5098132;28;20282;-80
2021/07/05 07:56:29;;;;;;;2.88;2.50;;;20.30;99.90;;;;;;5091327;28;20207;-80
2021/07/05 07:58:59;;;;;;;7.25;2.75;;;20.20;99.90;;;;;;5108149;28;20229;-80
2021/07/05 08:01:27;;;;;;;5.63;2.90;;;19.90;99.90;;;;;;5105643;28;20237;-80
2021/07/05 08:03:54;;;;;;;4.47;2.90;;;18.90;99.90;;;;;;5103579;28;20226;-80
2021/07/05 08:06:21;;;;;;;2.85;2.28;;;18.70;99.90;;;;;;5107984;28;20204;-80
2021/07/05 08:08:51;;;;;;;6.68;3.22;;;18.80;99.90;;;;;;5102724;28;20205;-80
2021/07/05 08:11:18;;;;;;;3.47;2.75;;;18.90;99.90;;;;;;5104959;28;20281;-81
2021/07/05 08:13:46;;;;;;;3.63;2.58;;;19.30;99.90;;;;;;5105166;28;20250;-80
2021/07/05 08:16:14;;;;;;;4.55;2.90;;;19.50;99.90;;;;;;5101783;28;20740;-79
2021/07/05 08:18:42;;;;;;;2.22;2.00;;;19.20;99.90;;;;;;5102782;28;20229;-80
2021/07/05 08:21:09;;;;;;;2.15;1.90;;;18.70;99.90;;;;;;5100060;28;20656;-79
2021/07/05 08:23:36;;;;;;;3.03;1.77;;;18.80;99.90;;;;;;5105139;28;20286;-81
2021/07/05 08:26:04;;;;;;;1.98;1.23;;;18.70;99.90;;;;;;5095345;28;20237;-80
2021/07/05 08:28:31;;;;;;;2.00;1.30;;;18.70;99.90;;;;;;5103139;28;20201;-80
2021/07/05 08:31:00;;;;;;;2.40;1.30;;;19.00;99.90;;;;;;5108512;28;20226;-80
2021/07/05 08:33:30;;;;;;;1.50;1.20;;;19.40;99.90;;;;;;5105744;28;20804;-79
2021/07/05 08:35:58;;;;;;;2.90;1.20;;;19.70;99.90;;;;;;5094404;28;20281;-82
2021/07/05 08:38:25;;;;;;;2.00;1.48;;;19.90;99.90;;;;;;5103527;28;20630;-78
2021/07/05 08:40:52;;;;;;;3.20;1.30;;;20.40;99.90;;;;;;5095911;28;20210;-80
2021/07/05 08:43:25;;;;;;;1.40;1.25;;;19.80;99.90;;;;;;5108046;28;20232;-80
2021/07/05 08:45:54;;;;;;;3.17;1.20;;;19.60;99.90;;;;;;5112593;28;20205;-80
2021/07/05 08:48:22;;;;;;;1.10;1.00;;;19.90;99.90;;;;;;5114691;27;20226;-80
2021/07/05 08:50:51;;;;;;;2.00;1.30;;;20.70;99.90;;;;;;5105290;28;20221;-80
2021/07/05 08:53:18;;;;;;;2.05;1.48;;;20.00;99.90;;;;;;5101175;28;20283;-80
2021/07/05 08:55:45;;;;;;;2.05;1.63;;;20.20;99.90;;;;;;5096156;28;20214;-82
2021/07/05 08:58:12;;;;;;;2.15;1.35;;;19.90;99.90;;;;;;5093298;28;20313;-83
2021/07/05 09:00:39;;;;;;;1.63;1.45;;;19.30;99.90;;;;;;5094030;28;20647;-82
2021/07/05 09:03:06;;;;;;;3.53;1.20;;;19.70;99.90;;;;;;5103527;28;20582;-83
2021/07/05 09:05:33;;;;;;;2.58;1.30;;;20.90;99.90;;;;;;5101038;28;20225;-82
2021/07/05 09:08:05;;;;;;;1.35;1.17;;;20.80;99.90;;;;;;5095317;28;20321;-82
2021/07/05 09:10:47;;;;;;;2.10;1.15;;;20.80;99.90;;;;;;5093140;28;20617;-80
2021/07/05 09:13:18;;;;;;;3.15;1.08;;;21.10;99.90;;;;;;5102902;28;20634;-78
2021/07/05 09:15:47;;;;;;;3.35;1.00;;;22.00;99.90;;;;;;5105218;28;20205;-79
2021/07/05 09:18:26;;;;;;;1.45;1.00;;;21.80;99.90;;;;;;5094650;28;20222;-78
2021/07/05 09:20:53;;;;;;;1.30;0.90;;;21.60;99.90;;;;;;5100177;28;20240;-78
2021/07/05 09:23:22;;;;;;;3.65;1.17;;;21.20;99.90;;;;;;5106783;28;20229;-78
2021/07/05 09:25:52;;;;;;;3.42;1.00;;;21.10;99.90;;;;;;5093217;28;20244;-77
2021/07/05 09:28:22;;;;;;;1.23;0.90;;;21.60;99.90;;;;;;5107754;28;20236;-77
2021/07/05 09:30:52;;;;;;;5.95;1.00;;;21.60;99.90;;;;;;5105652;28;20201;-79
2021/07/05 09:33:21;;;;;;;1.92;0.90;;;21.20;99.90;;;;;;5110861;28;20228;-78
2021/07/05 09:35:49;;;;;;;2.50;0.90;;;20.60;99.90;;;;;;5102172;28;20715;-79
2021/07/05 09:38:30;;;;;;;3.10;1.20;;;20.30;99.90;;;;;;5108415;28;20255;-79
2021/07/05 09:40:57;;;;;;;2.88;1.10;;;19.80;99.90;;;;;;5092792;28;20622;-78
2021/07/05 09:43:27;;;;;;;1.88;0.80;;;19.20;99.90;;;;;;5103645;28;20213;-78
2021/07/05 09:45:54;;;;;;;2.20;1.08;;;19.00;99.90;;;;;;5112621;28;20220;-79
2021/07/05 09:48:23;;;;;;;1.27;0.80;;;19.20;99.90;;;;;;5113017;28;20234;-79
2021/07/05 09:50:59;;;;;;;1.33;0.90;;;19.00;99.90;;;;;;5104494;28;20209;-78
2021/07/05 09:53:30;;;;;;;2.63;0.98;;;18.70;99.90;;;;;;5096618;28;20244;-78
2021/07/05 09:56:20;;;;;;;2.25;1.13;;;18.10;99.90;;;;;;5091648;28;20190;-78
2021/07/05 09:58:48;;;;;;;1.17;1.00;;;17.80;99.90;;;;;;5093001;28;20238;-78
2021/07/05 10:01:36;;;;;;;2.20;0.98;;;17.90;99.90;;;;;;5092845;28;20275;-78
2021/07/05 10:04:08;;;;;;;2.17;1.30;;;18.10;99.90;;;;;;5098773;28;20237;-78
2021/07/05 10:06:43;;;;;;;1.70;1.30;;;18.30;99.90;;;;;;5102919;28;20202;-78
2021/07/05 10:09:18;;;;;;;2.72;1.10;;;18.90;99.90;;;;;;5098971;28;20239;-78
2021/07/05 10:11:45;;;;;;;1.40;1.00;;;19.40;99.90;;;;;;5109871;28;20208;-79
2021/07/05 10:14:17;;;;;;;1.48;0.90;;;19.80;99.90;;;;;;5102369;28;20293;-78
2021/07/05 10:16:45;;;;;;;1.33;0.90;;;20.10;99.90;;;;;;5107612;28;20292;-79
2021/07/05 10:19:15;;;;;;;1.23;0.90;;;20.00;99.90;;;;;;5109423;28;20244;-80
2021/07/05 10:21:43;;;;;;;2.25;0.80;;;19.60;99.90;;;;;;5101832;28;20214;-79
2021/07/05 10:24:12;;;;;;;2.50;1.08;;;19.60;99.90;;;;;;5103594;28;20221;-79
2021/07/05 10:26:41;;;;;;;2.35;0.90;;;19.30;99.90;;;;;;5096607;28;20202;-80
2021/07/05 10:29:10;;;;;;;3.00;1.52;;;19.40;99.90;;;;;;5096747;27;20612;-80
2021/07/05 10:31:39;;;;;;;4.50;1.70;;;19.10;99.90;;;;;;5100651;28;20285;-79
2021/07/05 10:34:06;;;;;;;3.30;1.30;;;18.80;99.90;;;;;;5094804;28;20224;-81
2021/07/05 10:36:38;;;;;;;1.20;0.90;;;18.70;99.90;;;;;;5094098;28;20241;-81
2021/07/05 10:39:09;;;;;;;1.73;0.90;;;18.80;99.90;;;;;;5100162;28;20289;-82
2021/07/05 10:41:40;;;;;;;1.50;0.90;;;18.90;99.90;;;;;;5097019;28;20299;-83
2021/07/05 10:44:09;;;;;;;1.90;0.95;;;19.10;99.90;;;;;;5110360;28;20286;-83
2021/07/05 10:46:45;;;;;;;2.72;0.93;;;19.10;99.90;;;;;;5097831;28;20214;-80
2021/07/05 10:49:46;;;;;;;2.25;1.10;;;19.10;99.90;;;;;;5095789;28;20206;-81
2021/07/05 10:52:17;;;;;;;1.80;1.40;;;18.80;99.90;;;;;;5102586;28;20224;-83
2021/07/05 10:54:46;;;;;;;1.50;1.10;;;18.50;99.90;;;;;;5108797;28;20204;-82
2021/07/05 10:57:19;;;;;;;1.98;1.42;;;18.30;99.90;;;;;;5100795;28;20608;-82
2021/07/05 10:59:47;;;;;;;2.40;1.20;;;18.20;99.90;;;;;;5100847;28;20286;-82
2021/07/05 11:02:40;;;;;;;2.88;1.08;;;18.40;99.90;;;;;;5103573;28;20214;-82
2021/07/05 11:05:28;;;;;;;2.83;1.10;;;18.70;99.90;;;;;;5106422;28;20289;-82
2021/07/05 11:07:58;;;;;;;2.10;1.10;;;19.00;99.90;;;;;;5099863;28;20648;-81
2021/07/05 11:10:31;;;;;;;1.20;1.08;;;19.10;99.90;;;;;;5096643;28;20273;-82
2021/07/05 11:13:00;;;;;;;3.20;1.20;;;19.40;99.90;;;;;;5095185;28;20657;-80
2021/07/05 11:15:55;;;;;;;2.10;1.08;;;19.50;99.90;;;;;;5102963;28;20226;-81
2021/07/05 11:19:08;;;;;;;1.20;0.90;;;19.50;99.90;;;;;;5034081;28;20295;-82
2021/07/05 11:21:57;;;;;;;2.85;1.42;;;18.90;99.90;;;;;;5033357;28;20594;-80
2021/07/05 11:24:43;;;;;;;1.92;1.00;;;19.00;99.90;;;;;;5034188;28;20683;-80
2021/07/05 11:27:47;;;;;;;1.98;0.80;;;18.90;99.90;;;;;;5035903;28;20239;-77
2021/07/05 11:30:20;;;;;;;1.20;0.80;;;18.90;99.90;;;;;;5030335;28;20524;-78
2021/07/05 11:32:49;;;;;;;1.88;0.70;;;19.00;99.90;;;;;;5035464;28;20644;-78
2021/07/05 11:35:48;;;;;;;1.08;0.63;;;19.10;99.90;;;;;;5043753;28;20230;-78
2021/07/05 11:38:33;;;;;;;1.73;0.63;;;19.50;99.90;;;;;;5039868;28;20220;-79
2021/07/05 11:41:04;;;;;;;0.95;0.60;;;19.00;99.90;;;;;;5041774;28;20703;-78
2021/07/05 11:43:44;;;;;;;1.83;0.70;;;18.80;99.90;;;;;;5036610;28;20247;-78
2021/07/05 11:46:15;;;;;;;1.17;0.82;;;18.60;99.90;;;;;;5038381;28;20632;-78
2021/07/05 11:48:56;;;;;;;3.55;0.73;;;18.40;99.90;;;;;;5033770;28;20283;-77
2021/07/05 11:51:27;;;;;;;1.30;0.60;;;18.40;99.90;;;;;;5041836;28;20287;-77
2021/07/05 11:53:56;;;;;;;2.47;0.70;;;18.40;99.90;;;;;;5067970;28;20280;-78
2021/07/05 11:56:35;;;;;;;1.95;0.60;;;18.40;99.90;;;;;;5100427;28;20624;-78
2021/07/05 11:59:05;;;;;;;2.13;0.80;;;18.50;99.90;;;;;;5096632;28;20257;-78
2021/07/05 12:01:33;;;;;;;1.50;0.70;;;18.80;99.90;;;;;;5089619;28;20677;-78
2021/07/05 12:04:01;;;;;;;0.70;0.50;;;18.80;99.90;;;;;;5101423;28;20289;-77
2021/07/05 12:06:28;;;;;;;0.88;0.55;;;18.90;99.90;;;;;;5099860;28;20614;-76
2021/07/05 12:08:57;;;;;;;0.65;0.60;;;19.20;99.90;;;;;;5110292;28;20225;-77
2021/07/05 12:11:35;;;;;;;0.77;0.57;;;19.20;99.90;;;;;;5103321;28;20225;-78
2021/07/05 12:14:04;;;;;;;1.13;0.50;;;19.30;99.90;;;;;;5099888;28;20280;-78
2021/07/05 12:16:31;;;;;;;1.25;0.50;;;19.40;99.90;;;;;;5102666;28;20225;-78
2021/07/05 12:18:59;;;;;;;1.80;0.60;;;19.30;99.90;;;;;;5101702;28;20226;-77
2021/07/05 12:21:32;;;;;;;2.10;0.57;;;19.20;99.90;;;;;;5107702;28;20222;-77
2021/07/05 12:24:09;;;;;;;1.23;0.63;;;19.20;99.90;;;;;;5092416;28;20199;-77
2021/07/05 12:26:44;;;;;;;1.02;0.65;;;19.40;99.90;;;;;;5092601;28;20230;-78
2021/07/05 12:29:15;;;;;;;2.80;0.85;;;19.30;99.90;;;;;;5102958;28;20289;-77
2021/07/05 12:31:58;;;;;;;1.45;0.60;;;19.10;99.90;;;;;;5099748;28;20218;-78
2021/07/05 12:34:44;;;;;;;2.22;0.70;;;18.80;99.90;;;;;;5110576;28;20287;-78
2021/07/05 12:37:20;;;;;;;3.05;0.93;;;18.90;99.90;;;;;;5105061;28;20226;-78
2021/07/05 12:40:08;;;;;;;1.30;0.60;;;19.10;99.90;;;;;;5094527;28;20244;-77
2021/07/05 12:42:47;;;;;;;1.52;0.68;;;19.10;99.90;;;;;;5100573;28;20218;-77
2021/07/05 12:45:18;;;;;;;0.70;0.60;;;18.70;99.90;;;;;;5094166;28;20226;-78
2021/07/05 12:47:48;;;;;;;2.13;0.80;;;18.40;99.90;;;;;;5094505;28;20190;-77
2021/07/05 12:50:17;;;;;;;2.45;0.90;;;18.20;99.90;;;;;;5101702;28;20284;-77
2021/07/05 12:52:59;;;;;;;2.67;0.77;;;18.00;99.90;;;;;;5103546;28;20743;-78
2021/07/05 12:55:26;;;;;;;1.77;0.60;;;17.70;99.90;;;;;;5103453;28;20289;-77
2021/07/05 12:57:55;;;;;;;0.40;0.35;;;17.50;99.90;;;;;;5101875;28;20675;-77
2021/07/05 13:00:24;;;;;;;1.23;0.50;;;17.50;99.90;;;;;;5097001;28;20198;-77
2021/07/05 13:02:51;;;;;;;1.17;0.40;;;17.30;99.90;;;;;;5103565;28;20245;-76